Terminal Aerodrome Forecast
Issued by NWS

Home | Current Version | Previous Version | Text Only | Print | Product List | Glossary On
Versions: 1 2 3 4 5 6 7 8 9 10 11 12 13
000
FTUS46 KLOX 261800 AAA
TAFOXR
TAF AMD
KOXR 261832Z 2619/2718 07018G27KT P6SM SKC
     FM262200 28008KT P6SM SKC
     FM270300 05008KT P6SM SKC
     FM270900 05015KT P6SM SKC
     FM271600 05018G28KT P6SM SKC=

USA.gov is the U.S. government's official web portal to all federal, state and local government web resources and services.